Time;durP1;ratioP1;P1;durP2;ratioP2;P2;SDS_P1;SDS_P2;PMS_P1;PMS_P2;Temp;Humidity;BMP_temperature;BMP_pressure;BME280_temperature;BME280_humidity;BME280_pressure;Samples;Min_cycle;Max_cycle;Signal;HPM_P1;HPM_P2
2022/05/13 00:01:05;;;;;;;11.20;5.40;;;15.70;99.90;;;;;;5109088;28;20393;-67
2022/05/13 00:03:31;;;;;;;9.50;4.70;;;15.70;99.90;;;;;;5112255;28;20215;-68
2022/05/13 00:05:57;;;;;;;6.27;4.43;;;15.80;99.90;;;;;;5119506;28;20565;-67
2022/05/13 00:08:22;;;;;;;8.17;4.80;;;15.70;99.90;;;;;;5116143;28;20203;-67
2022/05/13 00:10:48;;;;;;;8.13;4.43;;;15.70;99.90;;;;;;5122510;28;20205;-68
2022/05/13 00:13:14;;;;;;;14.40;5.20;;;15.70;99.90;;;;;;5118435;28;20228;-68
2022/05/13 00:15:44;;;;;;;11.03;5.33;;;15.70;99.90;;;;;;5122148;28;20199;-67
2022/05/13 00:18:10;;;;;;;8.73;5.47;;;15.70;99.90;;;;;;5117706;28;20272;-67
2022/05/13 00:20:37;;;;;;;14.43;4.50;;;15.70;99.90;;;;;;5121935;28;20427;-66
2022/05/13 00:23:02;;;;;;;10.83;5.10;;;15.60;99.90;;;;;;5116236;28;20437;-67
2022/05/13 00:25:31;;;;;;;9.10;5.80;;;15.60;99.90;;;;;;5121735;28;20456;-67
2022/05/13 00:27:58;;;;;;;11.67;5.23;;;15.60;99.90;;;;;;5111457;28;20207;-68
2022/05/13 00:30:26;;;;;;;8.90;4.50;;;15.60;99.90;;;;;;5106929;28;20448;-67
2022/05/13 00:32:52;;;;;;;12.30;5.57;;;15.50;99.90;;;;;;5115649;28;20419;-67
2022/05/13 00:35:19;;;;;;;11.17;5.40;;;15.50;99.90;;;;;;5114357;28;20438;-67
2022/05/13 00:37:44;;;;;;;16.97;5.80;;;15.50;99.90;;;;;;5124671;28;20202;-67
2022/05/13 00:40:11;;;;;;;10.20;5.50;;;15.60;99.90;;;;;;5125508;28;20837;-67
2022/05/13 00:42:37;;;;;;;12.23;6.27;;;15.50;99.90;;;;;;5114547;28;20282;-67
2022/05/13 00:45:03;;;;;;;9.67;5.10;;;15.50;99.90;;;;;;5123390;28;20467;-67
2022/05/13 00:47:29;;;;;;;8.17;4.33;;;15.50;99.90;;;;;;5125105;27;20203;-68
2022/05/13 00:49:56;;;;;;;20.83;6.17;;;15.40;99.90;;;;;;5122237;27;20524;-67
2022/05/13 00:52:23;;;;;;;12.53;5.97;;;15.40;99.90;;;;;;5122202;27;20673;-67
2022/05/13 00:54:49;;;;;;;10.80;5.80;;;15.40;99.90;;;;;;5119817;27;20459;-68
2022/05/13 00:57:15;;;;;;;10.10;6.13;;;15.30;99.90;;;;;;5112621;27;20425;-68
2022/05/13 00:59:44;;;;;;;11.10;6.47;;;15.40;99.90;;;;;;5119056;27;20948;-66
2022/05/13 01:02:10;;;;;;;15.83;5.97;;;15.30;99.90;;;;;;5080022;28;20847;-67
2022/05/13 01:04:38;;;;;;;12.37;5.93;;;15.30;99.90;;;;;;5114136;27;20424;-68
2022/05/13 01:07:12;;;;;;;19.23;6.77;;;15.30;99.90;;;;;;5115296;27;20475;-67
2022/05/13 01:09:43;;;;;;;9.93;6.10;;;15.30;99.90;;;;;;5117947;27;20416;-67
2022/05/13 01:12:12;;;;;;;8.80;5.50;;;15.30;99.90;;;;;;5127121;27;20463;-66
2022/05/13 01:14:49;;;;;;;9.33;5.90;;;15.30;99.90;;;;;;5118985;27;20409;-67
2022/05/13 01:20:07;;;;;;;12.23;5.87;;;15.30;99.90;;;;;;5112241;27;20473;-67
2022/05/13 01:22:48;;;;;;;8.63;5.73;;;15.30;99.90;;;;;;5122599;27;20477;-67
2022/05/13 01:25:17;;;;;;;10.17;5.97;;;15.20;99.90;;;;;;5127929;27;20508;-67
2022/05/13 01:27:45;;;;;;;10.70;6.37;;;15.30;99.90;;;;;;5126289;27;20511;-67
2022/05/13 01:30:13;;;;;;;14.10;6.67;;;15.30;99.90;;;;;;5118495;27;20436;-67
2022/05/13 01:32:39;;;;;;;15.20;6.03;;;15.30;99.90;;;;;;5110823;27;20536;-68
2022/05/13 01:35:05;;;;;;;9.73;6.97;;;15.30;99.90;;;;;;5091752;27;20853;-68
2022/05/13 01:37:32;;;;;;;10.70;6.47;;;15.30;99.90;;;;;;5122057;27;20183;-68
2022/05/13 01:39:58;;;;;;;8.17;4.60;;;15.30;99.90;;;;;;5120855;27;20449;-67
2022/05/13 01:42:24;;;;;;;20.83;7.47;;;15.30;99.90;;;;;;5109153;27;20453;-67
2022/05/13 01:44:49;;;;;;;11.90;6.90;;;15.30;99.90;;;;;;5122304;27;20214;-66
2022/05/13 01:47:15;;;;;;;11.43;5.63;;;15.30;99.90;;;;;;5124491;27;20223;-67
2022/05/13 01:49:40;;;;;;;14.63;6.50;;;15.20;99.90;;;;;;5126538;27;20194;-67
2022/05/13 01:52:06;;;;;;;9.10;5.67;;;15.20;99.90;;;;;;5122731;27;20712;-67
2022/05/13 01:54:32;;;;;;;14.93;6.47;;;15.10;99.90;;;;;;5115096;27;20199;-65
2022/05/13 01:56:59;;;;;;;10.40;5.50;;;15.00;99.90;;;;;;5121607;27;20187;-68
2022/05/13 01:59:24;;;;;;;12.57;6.90;;;15.00;99.90;;;;;;5119815;27;20194;-66
2022/05/13 02:01:50;;;;;;;12.67;6.70;;;15.00;99.90;;;;;;5122149;27;20420;-67
2022/05/13 02:04:15;;;;;;;12.57;5.83;;;15.00;99.90;;;;;;5118947;27;20564;-66
2022/05/13 02:06:41;;;;;;;14.07;5.67;;;14.90;99.90;;;;;;5112928;27;20211;-67
2022/05/13 02:09:07;;;;;;;11.83;6.90;;;14.90;99.90;;;;;;5118628;27;20225;-67
2022/05/13 02:11:32;;;;;;;13.70;6.50;;;14.90;99.90;;;;;;5115841;27;20780;-67
2022/05/13 02:13:59;;;;;;;13.43;6.67;;;14.90;99.90;;;;;;5117702;27;20205;-66
2022/05/13 02:16:24;;;;;;;9.33;5.80;;;14.90;99.90;;;;;;5120968;27;20207;-66
2022/05/13 02:18:50;;;;;;;14.00;6.33;;;14.90;99.90;;;;;;5117964;27;20436;-67
2022/05/13 02:21:17;;;;;;;10.30;5.60;;;14.90;99.90;;;;;;5123651;27;20342;-65
2022/05/13 02:23:43;;;;;;;17.93;6.60;;;14.90;99.90;;;;;;5119457;27;20489;-68
2022/05/13 02:26:11;;;;;;;13.10;6.60;;;14.90;99.90;;;;;;5116283;27;20448;-68
2022/05/13 02:28:38;;;;;;;14.27;5.97;;;14.80;99.90;;;;;;5114684;27;20210;-68
2022/05/13 02:31:05;;;;;;;11.90;6.30;;;14.80;99.90;;;;;;5113777;27;20421;-66
2022/05/13 02:33:32;;;;;;;10.77;7.03;;;14.80;99.90;;;;;;5116922;27;20871;-66
2022/05/13 02:35:59;;;;;;;16.80;5.83;;;14.80;99.90;;;;;;5122146;27;20446;-67
2022/05/13 02:38:26;;;;;;;10.03;6.00;;;14.80;99.90;;;;;;5119048;27;20448;-68
2022/05/13 02:43:36;;;;;;;11.53;6.60;;;14.80;99.90;;;;;;5116899;27;20528;-67
2022/05/13 02:46:02;;;;;;;13.17;6.00;;;14.80;99.90;;;;;;5120809;27;20531;-68
2022/05/13 02:48:28;;;;;;;13.77;7.00;;;14.80;99.90;;;;;;5120464;27;20214;-67
2022/05/13 02:50:54;;;;;;;10.57;6.40;;;14.80;99.90;;;;;;5118482;27;20286;-66
2022/05/13 02:53:20;;;;;;;14.13;6.57;;;14.80;99.90;;;;;;5119703;27;20535;-67
2022/05/13 02:55:45;;;;;;;10.03;5.67;;;14.80;99.90;;;;;;5117406;27;20533;-66
2022/05/13 02:58:11;;;;;;;11.40;6.10;;;14.80;99.90;;;;;;5118720;27;20923;-66
2022/05/13 03:00:38;;;;;;;11.40;7.00;;;14.80;99.90;;;;;;5111457;27;20195;-66
2022/05/13 03:03:05;;;;;;;12.03;7.00;;;14.80;99.90;;;;;;5116223;27;20194;-67
2022/05/13 03:05:32;;;;;;;13.13;6.60;;;14.80;99.90;;;;;;5115837;27;20443;-66
2022/05/13 03:08:01;;;;;;;8.87;5.37;;;14.80;99.90;;;;;;5119244;27;20500;-67
2022/05/13 03:10:28;;;;;;;12.13;5.70;;;14.80;99.90;;;;;;5122966;27;20417;-66
2022/05/13 03:12:54;;;;;;;12.00;5.90;;;14.80;99.90;;;;;;5118058;27;20432;-69
2022/05/13 03:15:19;;;;;;;10.80;5.77;;;14.80;99.90;;;;;;5116497;27;20464;-66
2022/05/13 03:17:45;;;;;;;11.67;6.93;;;14.80;99.90;;;;;;5117983;27;20535;-66
2022/05/13 03:20:16;;;;;;;10.13;6.80;;;14.80;99.90;;;;;;5115838;27;20211;-66
2022/05/13 03:22:42;;;;;;;13.90;6.37;;;14.80;99.90;;;;;;5108615;27;20202;-67
2022/05/13 03:25:08;;;;;;;12.40;6.30;;;14.80;99.90;;;;;;5121540;27;20440;-66
2022/05/13 03:27:33;;;;;;;12.63;7.13;;;14.80;99.90;;;;;;5113779;27;20231;-67
2022/05/13 03:29:59;;;;;;;11.53;5.60;;;14.80;99.90;;;;;;5119740;27;20884;-67
2022/05/13 03:32:25;;;;;;;18.23;6.07;;;14.80;99.90;;;;;;5123839;27;20187;-67
2022/05/13 03:34:50;;;;;;;9.20;6.10;;;14.80;99.90;;;;;;5121931;27;20210;-67
2022/05/13 03:37:16;;;;;;;11.97;6.53;;;14.90;99.90;;;;;;5122047;27;20569;-65
2022/05/13 03:39:42;;;;;;;10.40;5.80;;;14.80;99.90;;;;;;5117459;27;20287;-68
2022/05/13 03:42:09;;;;;;;9.70;6.00;;;14.80;99.90;;;;;;5120837;27;20309;-66
2022/05/13 03:44:36;;;;;;;9.53;5.80;;;14.80;99.90;;;;;;5118138;27;20430;-67
2022/05/13 03:47:03;;;;;;;10.23;5.77;;;14.80;99.90;;;;;;5120477;27;20591;-67
2022/05/13 03:49:29;;;;;;;11.07;6.20;;;14.80;99.90;;;;;;5116974;27;20520;-66
2022/05/13 03:51:54;;;;;;;9.80;5.70;;;14.90;99.90;;;;;;5118935;27;21226;-67
2022/05/13 03:54:20;;;;;;;8.80;5.70;;;14.90;99.90;;;;;;5121953;27;20561;-67
2022/05/13 03:56:45;;;;;;;10.70;5.43;;;14.80;99.90;;;;;;5123937;27;20215;-66
2022/05/13 03:59:11;;;;;;;9.93;5.80;;;14.80;99.90;;;;;;5122483;27;20187;-66
2022/05/13 04:01:37;;;;;;;11.00;6.10;;;14.80;99.90;;;;;;5123286;28;20826;-67
2022/05/13 04:04:02;;;;;;;10.67;5.43;;;14.80;99.90;;;;;;5113953;28;20738;-66
2022/05/13 04:09:12;;;;;;;12.03;6.23;;;14.80;99.90;;;;;;5115742;28;20251;-66
2022/05/13 04:11:40;;;;;;;7.90;4.70;;;14.80;99.90;;;;;;5116181;28;20424;-66
2022/05/13 04:16:53;;;;;;;9.20;5.00;;;14.80;99.90;;;;;;5121633;28;20447;-64
2022/05/13 04:19:19;;;;;;;10.10;5.60;;;14.80;99.90;;;;;;5118885;28;20444;-66
2022/05/13 04:21:46;;;;;;;10.80;5.13;;;14.80;99.90;;;;;;5119785;28;20191;-66
2022/05/13 04:24:15;;;;;;;11.40;5.20;;;14.80;99.90;;;;;;5121340;27;20423;-67
2022/05/13 04:26:41;;;;;;;9.37;5.97;;;14.80;99.90;;;;;;5123579;27;20500;-66
2022/05/13 04:29:07;;;;;;;10.17;5.87;;;14.80;99.90;;;;;;5118931;27;20512;-67
2022/05/13 04:31:36;;;;;;;10.53;5.50;;;14.80;99.90;;;;;;5124859;27;20824;-66
2022/05/13 04:34:02;;;;;;;11.17;5.80;;;14.80;99.90;;;;;;5123834;27;20199;-66
2022/05/13 04:36:27;;;;;;;10.53;5.20;;;14.80;99.90;;;;;;5121205;27;20460;-65
2022/05/13 04:38:54;;;;;;;13.70;5.93;;;14.80;99.90;;;;;;5118300;27;20623;-67
2022/05/13 04:44:10;;;;;;;9.60;5.57;;;14.90;99.90;;;;;;5127574;27;20929;-67
2022/05/13 04:46:36;;;;;;;10.27;5.47;;;14.90;99.90;;;;;;5116064;27;20464;-65
2022/05/13 04:49:03;;;;;;;9.63;5.13;;;14.90;99.90;;;;;;5114974;27;20430;-66
2022/05/13 04:51:29;;;;;;;14.60;6.30;;;14.90;99.90;;;;;;5107979;27;20459;-66
2022/05/13 04:53:56;;;;;;;8.00;4.87;;;14.90;99.90;;;;;;5110102;27;20441;-66
2022/05/13 04:56:23;;;;;;;11.47;6.00;;;14.90;99.90;;;;;;5113806;27;20199;-67
2022/05/13 04:58:49;;;;;;;7.97;4.43;;;14.90;99.90;;;;;;5125017;27;20516;-65
2022/05/13 05:01:16;;;;;;;8.03;4.83;;;15.00;99.90;;;;;;5114082;27;20591;-66
2022/05/13 05:03:43;;;;;;;7.50;4.80;;;14.90;99.90;;;;;;5116695;27;20478;-66
2022/05/13 05:06:10;;;;;;;16.77;4.90;;;14.90;99.90;;;;;;5117047;27;20440;-67
2022/05/13 05:08:37;;;;;;;9.60;5.20;;;14.90;99.90;;;;;;5119378;27;20464;-66
2022/05/13 05:11:05;;;;;;;10.13;4.40;;;14.90;99.90;;;;;;5111212;27;20436;-67
2022/05/13 05:13:34;;;;;;;15.20;5.50;;;14.90;99.90;;;;;;5109516;27;20474;-66
2022/05/13 05:15:59;;;;;;;6.80;4.60;;;14.90;99.90;;;;;;5108304;27;20488;-68
2022/05/13 05:18:26;;;;;;;10.87;5.60;;;14.90;99.90;;;;;;5107176;27;20441;-66
2022/05/13 05:20:51;;;;;;;8.97;4.60;;;14.90;99.90;;;;;;5112859;27;20190;-66
2022/05/13 05:23:23;;;;;;;12.53;5.23;;;14.90;99.90;;;;;;5120391;27;20427;-66
2022/05/13 05:25:49;;;;;;;7.93;4.50;;;14.90;99.90;;;;;;5109553;27;20244;-66
2022/05/13 05:28:15;;;;;;;8.10;5.23;;;14.90;99.90;;;;;;5108674;27;20476;-66
2022/05/13 05:30:42;;;;;;;9.60;5.67;;;14.80;99.90;;;;;;5113755;27;20578;-66
2022/05/13 05:33:08;;;;;;;9.33;4.77;;;14.90;99.90;;;;;;5110278;27;20832;-66
2022/05/13 05:35:34;;;;;;;10.80;5.47;;;14.90;99.90;;;;;;5110044;27;20800;-66
2022/05/13 05:38:00;;;;;;;12.37;5.33;;;14.90;99.90;;;;;;5105117;27;20547;-66
2022/05/13 05:40:26;;;;;;;7.77;5.20;;;15.00;99.90;;;;;;5107631;27;20480;-67
2022/05/13 05:42:51;;;;;;;6.80;4.30;;;15.00;99.90;;;;;;5105769;27;21041;-65
2022/05/13 05:45:19;;;;;;;9.40;5.33;;;15.00;99.90;;;;;;5102896;27;20214;-66
2022/05/13 05:47:44;;;;;;;9.10;5.47;;;15.00;99.90;;;;;;5107716;27;20767;-67
2022/05/13 05:50:14;;;;;;;11.43;5.50;;;15.00;99.90;;;;;;5120066;27;20424;-66
2022/05/13 05:52:40;;;;;;;12.17;5.53;;;15.00;99.90;;;;;;5121204;27;20422;-66
2022/05/13 05:58:11;;;;;;;7.60;5.10;;;15.00;99.90;;;;;;5126255;27;20478;-67
2022/05/13 06:00:42;;;;;;;13.93;5.50;;;15.00;99.90;;;;;;5127229;27;20784;-66
2022/05/13 06:03:09;;;;;;;10.90;5.10;;;15.00;99.90;;;;;;5124383;27;20503;-66
2022/05/13 06:05:35;;;;;;;7.37;5.00;;;15.10;99.90;;;;;;5126231;27;20454;-65
2022/05/13 06:08:02;;;;;;;10.17;5.00;;;15.10;99.90;;;;;;5123333;27;20468;-66
2022/05/13 06:10:29;;;;;;;10.13;6.20;;;15.10;99.90;;;;;;5125006;27;20802;-67
2022/05/13 06:12:55;;;;;;;9.83;6.03;;;15.10;99.90;;;;;;5092831;27;20439;-66
2022/05/13 06:15:22;;;;;;;11.50;5.60;;;15.00;99.90;;;;;;5124140;27;20436;-66
2022/05/13 06:17:53;;;;;;;18.00;5.50;;;15.00;99.90;;;;;;5122345;27;20432;-65
2022/05/13 06:20:22;;;;;;;10.67;6.20;;;15.10;99.90;;;;;;5123798;27;20454;-66
2022/05/13 06:22:48;;;;;;;12.47;6.07;;;15.10;99.90;;;;;;5119241;27;20433;-66
2022/05/13 06:25:15;;;;;;;13.33;6.13;;;15.20;99.90;;;;;;5117695;27;20567;-66
2022/05/13 06:27:42;;;;;;;12.40;4.93;;;15.30;99.90;;;;;;5092625;27;20592;-67
2022/05/13 06:30:16;;;;;;;10.17;5.77;;;15.30;99.90;;;;;;5108795;27;20452;-65
2022/05/13 06:32:41;;;;;;;10.43;6.07;;;15.30;99.90;;;;;;5093243;27;20792;-67
2022/05/13 06:35:08;;;;;;;8.40;4.57;;;15.30;99.90;;;;;;5115365;27;20447;-66
2022/05/13 06:37:34;;;;;;;10.37;6.10;;;15.30;99.90;;;;;;5122448;27;20239;-64
2022/05/13 06:39:59;;;;;;;8.90;5.17;;;15.20;99.90;;;;;;5117012;27;20911;-66
2022/05/13 06:42:25;;;;;;;8.20;5.13;;;15.20;99.90;;;;;;5124796;27;20420;-67
2022/05/13 06:44:51;;;;;;;11.50;4.80;;;15.20;99.90;;;;;;5124806;27;20258;-66
2022/05/13 06:47:16;;;;;;;7.50;4.73;;;15.10;99.90;;;;;;5125406;27;20309;-66
2022/05/13 06:49:43;;;;;;;12.37;5.90;;;15.10;99.90;;;;;;5123713;27;20222;-66
2022/05/13 06:52:13;;;;;;;13.47;5.07;;;15.00;99.90;;;;;;5124149;27;20195;-66
2022/05/13 06:54:42;;;;;;;10.40;5.20;;;15.00;99.90;;;;;;5114849;27;20413;-65
2022/05/13 06:57:08;;;;;;;9.47;4.80;;;15.10;99.90;;;;;;5082545;28;20917;-66
2022/05/13 06:59:34;;;;;;;10.73;5.20;;;15.10;99.90;;;;;;5120795;27;20986;-66
2022/05/13 07:02:00;;;;;;;7.73;4.27;;;15.20;99.90;;;;;;5121850;27;20432;-68
2022/05/13 07:04:25;;;;;;;10.70;3.43;;;15.20;99.90;;;;;;5120007;27;20191;-67
2022/05/13 07:06:51;;;;;;;16.23;4.37;;;15.30;99.90;;;;;;5121500;27;20278;-67
2022/05/13 07:09:17;;;;;;;7.63;3.40;;;15.20;99.90;;;;;;5118635;27;20295;-67
2022/05/13 07:11:44;;;;;;;11.13;3.80;;;15.20;99.90;;;;;;5122368;27;20952;-67
2022/05/13 07:14:10;;;;;;;7.97;3.63;;;15.10;99.90;;;;;;5116485;27;20191;-66
2022/05/13 07:16:36;;;;;;;5.83;3.30;;;15.10;99.90;;;;;;5113528;27;20531;-66
2022/05/13 07:19:02;;;;;;;18.80;3.50;;;15.10;99.90;;;;;;5116098;27;20512;-67
2022/05/13 07:21:27;;;;;;;17.17;3.37;;;15.10;99.90;;;;;;5114712;27;20199;-66
2022/05/13 07:23:53;;;;;;;10.37;4.23;;;15.10;99.90;;;;;;5113670;27;20191;-66
2022/05/13 07:26:18;;;;;;;14.30;3.33;;;15.10;99.90;;;;;;5116765;27;20662;-68
2022/05/13 07:28:44;;;;;;;14.20;3.73;;;15.10;99.90;;;;;;5096800;27;20222;-66
2022/05/13 07:31:10;;;;;;;5.23;2.97;;;15.10;99.90;;;;;;5109454;27;20199;-68
2022/05/13 07:33:36;;;;;;;5.30;3.00;;;15.10;99.90;;;;;;5094557;27;20725;-66
2022/05/13 07:36:03;;;;;;;4.47;2.33;;;15.10;99.90;;;;;;5112671;27;20343;-67
2022/05/13 07:38:30;;;;;;;7.10;1.97;;;15.00;99.90;;;;;;5120915;27;20428;-67
2022/05/13 07:43:41;;;;;;;10.07;2.63;;;15.00;99.90;;;;;;5107604;27;20856;-68
2022/05/13 07:46:07;;;;;;;4.27;2.00;;;15.00;99.90;;;;;;5121454;27;20448;-66
2022/05/13 07:48:33;;;;;;;3.40;2.00;;;15.00;99.90;;;;;;5125826;27;20575;-67
2022/05/13 07:50:59;;;;;;;8.30;1.67;;;15.00;99.90;;;;;;5112151;27;20857;-67
2022/05/13 07:53:24;;;;;;;6.87;2.80;;;15.00;99.90;;;;;;5108186;27;20648;-67
2022/05/13 07:55:50;;;;;;;3.97;2.40;;;15.00;99.90;;;;;;5117247;27;20758;-68
2022/05/13 07:58:16;;;;;;;18.27;3.10;;;15.00;99.90;;;;;;5088942;28;20591;-70
2022/05/13 08:00:43;;;;;;;3.33;2.50;;;15.10;99.90;;;;;;5123870;27;20198;-68
2022/05/13 08:03:11;;;;;;;6.10;2.20;;;15.10;99.90;;;;;;5107475;28;20422;-68
2022/05/13 08:05:51;;;;;;;3.83;2.03;;;15.10;99.90;;;;;;5113607;28;20640;-67
2022/05/13 08:08:30;;;;;;;4.70;2.40;;;15.20;99.90;;;;;;5122024;28;20564;-67
2022/05/13 08:10:59;;;;;;;4.93;2.53;;;15.20;99.90;;;;;;5118321;28;20417;-67
2022/05/13 08:13:26;;;;;;;4.87;2.60;;;15.40;99.90;;;;;;5122052;28;20471;-68
2022/05/13 08:15:55;;;;;;;4.77;2.17;;;15.50;99.90;;;;;;5117155;28;20490;-67
2022/05/13 08:18:22;;;;;;;4.50;2.40;;;15.60;99.90;;;;;;5099530;28;20855;-69
2022/05/13 08:20:49;;;;;;;7.33;3.50;;;15.70;99.90;;;;;;5116101;28;20448;-67
2022/05/13 08:23:15;;;;;;;6.33;1.93;;;15.70;99.90;;;;;;5120876;28;20456;-67
2022/05/13 08:25:41;;;;;;;8.23;2.70;;;15.60;99.90;;;;;;5109971;28;20877;-67
2022/05/13 08:28:08;;;;;;;12.80;3.67;;;15.60;99.90;;;;;;5110904;28;20241;-69
2022/05/13 08:30:35;;;;;;;4.97;2.50;;;15.70;99.90;;;;;;5119726;28;20431;-69
2022/05/13 08:33:08;;;;;;;4.67;1.77;;;15.80;99.90;;;;;;5122733;28;20428;-68
2022/05/13 08:35:36;;;;;;;19.33;3.10;;;15.90;99.90;;;;;;5117043;28;20437;-68
2022/05/13 08:38:02;;;;;;;10.60;1.97;;;15.90;99.90;;;;;;5121474;28;20832;-68
2022/05/13 08:40:31;;;;;;;5.23;1.90;;;15.90;99.90;;;;;;5120295;28;20980;-68
2022/05/13 08:42:58;;;;;;;8.53;1.70;;;15.90;99.90;;;;;;5120057;28;20425;-68
2022/05/13 08:45:24;;;;;;;5.30;2.10;;;15.90;99.90;;;;;;5114571;28;20437;-67
2022/05/13 08:47:54;;;;;;;15.73;2.20;;;15.80;99.90;;;;;;5118245;28;20537;-70
2022/05/13 08:50:39;;;;;;;3.10;1.37;;;15.80;99.90;;;;;;5113489;28;20202;-68
2022/05/13 08:53:29;;;;;;;3.33;1.40;;;15.80;99.90;;;;;;5115314;28;20433;-68
2022/05/13 08:56:02;;;;;;;5.53;1.63;;;15.90;99.90;;;;;;5110310;28;20972;-68
2022/05/13 08:58:33;;;;;;;5.63;2.03;;;16.10;99.90;;;;;;5120187;28;20447;-68
2022/05/13 09:01:01;;;;;;;4.83;1.60;;;16.00;99.90;;;;;;5113092;28;20441;-68
2022/05/13 09:03:30;;;;;;;6.60;2.40;;;16.10;99.90;;;;;;5092493;28;21126;-69
2022/05/13 09:06:07;;;;;;;4.30;1.60;;;16.10;99.90;;;;;;5101731;28;20465;-68
2022/05/13 09:08:34;;;;;;;6.43;1.47;;;16.20;99.90;;;;;;5104126;28;20820;-66
2022/05/13 09:11:37;;;;;;;9.17;2.20;;;16.20;99.90;;;;;;5106669;27;20436;-68
2022/05/13 09:14:03;;;;;;;5.50;1.53;;;16.20;99.90;;;;;;5109482;27;20771;-68
2022/05/13 09:16:50;;;;;;;4.47;1.90;;;16.10;99.90;;;;;;5109759;27;21157;-67
2022/05/13 09:19:36;;;;;;;5.73;1.93;;;16.10;99.90;;;;;;5108907;27;20570;-68
2022/05/13 09:22:04;;;;;;;5.77;1.50;;;16.10;99.90;;;;;;5106416;27;20421;-67
2022/05/13 09:24:29;;;;;;;3.97;1.37;;;16.20;99.90;;;;;;5109032;27;20443;-68
2022/05/13 09:26:55;;;;;;;2.73;1.40;;;16.20;99.90;;;;;;5108744;27;20460;-68
2022/05/13 09:29:21;;;;;;;3.30;1.17;;;16.40;99.90;;;;;;5113413;27;20240;-67
2022/05/13 09:31:57;;;;;;;4.53;2.40;;;16.50;99.90;;;;;;5112595;27;20618;-69
2022/05/13 09:34:50;;;;;;;3.90;1.53;;;16.40;99.90;;;;;;5109408;27;20183;-68
2022/05/13 09:37:22;;;;;;;3.00;1.33;;;16.40;99.90;;;;;;5108693;27;20413;-67
2022/05/13 09:40:23;;;;;;;5.20;2.20;;;16.50;99.90;;;;;;5108492;27;20413;-68
2022/05/13 09:42:52;;;;;;;3.40;1.80;;;16.70;99.90;;;;;;5112074;27;20431;-68
2022/05/13 09:45:21;;;;;;;3.13;1.50;;;16.90;99.90;;;;;;5110801;27;20457;-67
2022/05/13 09:48:04;;;;;;;7.80;1.60;;;17.00;99.90;;;;;;5111648;27;20461;-68
2022/05/13 09:50:35;;;;;;;3.03;1.40;;;17.00;99.90;;;;;;5109182;27;20428;-68
2022/05/13 09:53:26;;;;;;;7.00;1.70;;;16.90;99.90;;;;;;5110710;27;20425;-68
2022/05/13 09:55:54;;;;;;;10.97;2.77;;;16.90;99.90;;;;;;5109741;27;20440;-68
2022/05/13 09:58:22;;;;;;;6.03;1.87;;;17.00;99.90;;;;;;5105945;27;20425;-68
2022/05/13 10:00:52;;;;;;;4.67;1.40;;;17.10;99.90;;;;;;5109569;27;21214;-68
2022/05/13 10:03:22;;;;;;;7.73;1.90;;;17.20;99.90;;;;;;5112402;27;20416;-68
2022/05/13 10:06:15;;;;;;;4.80;2.03;;;17.30;99.90;;;;;;5109604;27;20447;-67
2022/05/13 10:14:36;;;;;;;2.33;1.10;;;17.90;99.90;;;;;;5109137;27;20420;-68
2022/05/13 10:17:28;;;;;;;2.73;1.30;;;18.30;99.90;;;;;;5108473;27;20421;-69
2022/05/13 10:20:08;;;;;;;3.20;1.57;;;18.40;99.90;;;;;;5108261;27;20437;-67
2022/05/13 10:22:59;;;;;;;7.63;2.37;;;18.40;99.90;;;;;;5110659;27;20421;-68
2022/05/13 10:25:35;;;;;;;4.73;1.70;;;18.50;99.90;;;;;;5111416;27;20823;-67
2022/05/13 10:28:14;;;;;;;5.30;1.50;;;18.50;99.90;;;;;;5109699;27;20471;-68
2022/05/13 10:30:50;;;;;;;3.40;1.60;;;18.30;99.90;;;;;;5120043;27;20887;-70
2022/05/13 10:33:26;;;;;;;4.07;2.00;;;18.10;99.90;;;;;;5115501;27;20425;-70
2022/05/13 10:36:29;;;;;;;5.27;1.70;;;18.00;99.90;;;;;;5113612;27;20932;-68
2022/05/13 10:39:15;;;;;;;4.73;2.40;;;17.90;99.90;;;;;;5047167;28;20446;-67
2022/05/13 10:41:50;;;;;;;8.33;2.50;;;17.90;99.90;;;;;;5105133;27;20413;-69
2022/05/13 10:44:19;;;;;;;3.10;1.97;;;17.80;99.90;;;;;;5114323;27;20437;-68
2022/05/13 10:46:52;;;;;;;3.73;1.93;;;17.80;99.90;;;;;;5109671;27;20479;-69
2022/05/13 10:49:18;;;;;;;4.90;1.47;;;17.90;99.90;;;;;;5121690;27;20449;-68
2022/05/13 10:52:20;;;;;;;3.90;2.10;;;17.90;99.90;;;;;;5122712;27;20452;-68
2022/05/13 10:55:00;;;;;;;6.67;1.17;;;17.90;99.90;;;;;;5117336;27;20714;-68
2022/05/13 10:57:32;;;;;;;5.93;2.50;;;18.10;99.50;;;;;;5089611;27;20562;-68
2022/05/13 11:00:12;;;;;;;8.27;3.60;;;18.00;99.40;;;;;;5108115;27;20828;-68
2022/05/13 11:02:43;;;;;;;3.10;2.07;;;18.10;99.50;;;;;;5089973;28;20425;-69
2022/05/13 11:05:17;;;;;;;4.33;1.80;;;17.90;99.90;;;;;;5122864;27;20464;-69
2022/05/13 11:08:01;;;;;;;5.93;2.23;;;17.90;99.90;;;;;;5123344;27;20472;-68
2022/05/13 11:10:27;;;;;;;3.80;1.63;;;17.90;99.80;;;;;;5114500;27;20520;-68
2022/05/13 11:13:29;;;;;;;4.47;1.60;;;17.90;99.90;;;;;;5117303;27;20565;-68
2022/05/13 11:16:07;;;;;;;3.50;1.70;;;17.90;99.90;;;;;;5084858;27;20317;-68
2022/05/13 11:19:03;;;;;;;7.73;1.77;;;17.90;99.90;;;;;;5111787;27;20415;-68
2022/05/13 11:21:49;;;;;;;5.50;1.93;;;17.90;99.90;;;;;;5118976;27;20864;-68
2022/05/13 11:27:50;;;;;;;6.10;2.80;;;18.00;99.10;;;;;;5111936;27;20522;-68
2022/05/13 11:30:52;;;;;;;4.10;2.50;;;18.10;99.60;;;;;;5122372;27;20929;-68
2022/05/13 11:33:28;;;;;;;3.80;2.13;;;18.00;99.90;;;;;;5117008;27;20442;-68
2022/05/13 11:36:03;;;;;;;8.10;1.90;;;18.00;99.90;;;;;;5119401;27;20985;-68
2022/05/13 11:38:34;;;;;;;4.30;1.87;;;18.20;99.90;;;;;;5110637;27;20793;-70
2022/05/13 11:41:04;;;;;;;2.63;1.40;;;18.30;99.90;;;;;;5122986;27;20942;-69
2022/05/13 11:44:03;;;;;;;9.80;1.80;;;18.40;99.90;;;;;;5118219;27;20420;-69
2022/05/13 11:46:50;;;;;;;5.93;2.00;;;18.50;99.90;;;;;;5122636;27;20454;-68
2022/05/13 11:49:25;;;;;;;3.47;1.80;;;18.70;99.60;;;;;;5123741;27;20424;-69
2022/05/13 11:51:51;;;;;;;4.83;1.50;;;18.90;98.10;;;;;;5113123;27;20531;-69
2022/05/13 11:54:27;;;;;;;3.07;1.87;;;19.10;98.40;;;;;;5122322;27;20992;-68
2022/05/13 11:57:25;;;;;;;6.80;1.83;;;19.40;97.70;;;;;;5118128;27;20546;-69
2022/05/13 12:00:15;;;;;;;3.80;1.67;;;19.60;96.40;;;;;;5108959;27;20429;-70
2022/05/13 12:02:50;;;;;;;16.20;1.50;;;19.70;97.10;;;;;;5116623;27;20416;-68
2022/05/13 12:05:16;;;;;;;6.03;1.80;;;20.00;96.10;;;;;;5123774;28;20460;-68
2022/05/13 12:07:50;;;;;;;2.57;1.53;;;20.30;96.40;;;;;;5117316;28;20542;-70
2022/05/13 12:10:18;;;;;;;4.37;1.73;;;20.60;96.00;;;;;;5122031;28;20178;-69
2022/05/13 12:12:54;;;;;;;7.23;1.40;;;20.50;95.40;;;;;;5112865;28;20973;-69
2022/05/13 12:16:08;;;;;;;9.20;1.40;;;20.20;93.80;;;;;;5120366;28;20437;-68
2022/05/13 12:18:52;;;;;;;5.53;2.20;;;19.80;94.60;;;;;;5074690;28;20443;-68
2022/05/13 12:21:42;;;;;;;10.30;2.10;;;19.70;95.90;;;;;;5116261;28;20413;-68
2022/05/13 12:24:11;;;;;;;3.30;1.37;;;19.80;96.20;;;;;;5118283;28;20477;-68
2022/05/13 12:26:52;;;;;;;5.40;1.70;;;20.10;96.70;;;;;;5111853;28;20833;-69
2022/05/13 12:29:25;;;;;;;7.10;2.00;;;20.40;95.20;;;;;;5109042;28;20440;-68
2022/05/13 12:31:53;;;;;;;7.80;1.30;;;20.40;95.40;;;;;;5109352;28;20408;-70
2022/05/13 12:38:06;;;;;;;3.43;1.37;;;20.60;93.30;;;;;;5054685;28;20421;-65
2022/05/13 12:40:55;;;;;;;4.87;1.83;;;20.80;93.10;;;;;;5021517;28;20870;-66
2022/05/13 12:43:31;;;;;;;1.80;1.10;;;21.00;92.00;;;;;;5117862;27;20782;-66
2022/05/13 12:46:19;;;;;;;9.27;2.30;;;20.80;92.50;;;;;;5125517;27;20539;-67
2022/05/13 12:49:03;;;;;;;2.37;1.20;;;20.70;92.40;;;;;;5117103;27;20460;-67
2022/05/13 12:51:42;;;;;;;3.70;1.67;;;20.20;93.80;;;;;;5122470;27;20919;-66
2022/05/13 12:54:10;;;;;;;2.70;1.50;;;20.20;92.70;;;;;;5116992;27;20416;-67
2022/05/13 12:56:48;;;;;;;2.17;1.13;;;20.30;94.40;;;;;;5115134;27;20439;-67
2022/05/13 12:59:22;;;;;;;13.43;2.17;;;20.60;94.20;;;;;;5117367;27;20440;-67
2022/05/13 13:01:50;;;;;;;3.83;1.43;;;20.60;92.40;;;;;;5110895;27;20492;-68
2022/05/13 13:04:23;;;;;;;14.57;1.83;;;20.60;93.70;;;;;;5121032;27;20435;-68
2022/05/13 13:06:49;;;;;;;7.77;1.90;;;20.70;92.70;;;;;;5115289;27;20568;-67
2022/05/13 13:09:18;;;;;;;5.33;1.47;;;20.40;92.70;;;;;;5123635;27;20462;-68
2022/05/13 13:11:52;;;;;;;2.37;1.30;;;20.20;93.20;;;;;;5126991;27;20480;-65
2022/05/13 13:14:29;;;;;;;5.13;1.23;;;20.00;92.50;;;;;;5116567;27;20507;-67
2022/05/13 13:17:01;;;;;;;2.50;1.30;;;19.90;93.10;;;;;;5117504;27;20428;-67
2022/05/13 13:19:29;;;;;;;3.50;1.43;;;20.10;93.70;;;;;;5117389;27;20561;-67
2022/05/13 13:21:56;;;;;;;3.93;1.80;;;20.50;92.70;;;;;;5115897;27;20858;-69
2022/05/13 13:24:28;;;;;;;3.57;1.83;;;20.70;92.20;;;;;;5118542;27;20428;-67
2022/05/13 13:26:54;;;;;;;2.30;1.33;;;20.70;92.30;;;;;;5122490;27;20448;-66
2022/05/13 13:29:29;;;;;;;2.77;1.30;;;20.80;91.30;;;;;;5122628;27;20808;-66
2022/05/13 13:32:00;;;;;;;3.40;1.30;;;21.10;91.20;;;;;;5112971;27;20216;-67